Airport Name : Arar

Other Name : Arar

ICAO : OERR

IATA : RAE

FAA :

Latitude : 30.906589

Longitude : 41.138217

Country : Saudi Arabia

Local Date and Time : 08 Dec 2022 00:09

 

TAF (Terminal Aerodrome Forecast)

 

METAR (METeorological Aerodrome Report)

OERR 022000Z 06004KT 9999 SCT040 15/12 Q1019 NOSIG

OERR 021900Z 08004KT 9999 BKN040 15/12 Q1019 NOSIG

OERR 021800Z 06004KT 9999 BKN040 15/12 Q1019 NOSIG

OERR 021700Z 06004KT 9999 BKN040 16/11 Q1019 NOSIG

To Charter a Jet Click here.